createdAt,value
2022-12-20T00:01:26.822Z,23.43
2022-12-20T00:03:56.393Z,22.57
2022-12-20T00:06:23.651Z,22.93
2022-12-20T00:08:54.968Z,22.83
2022-12-20T00:11:22.141Z,24.50
2022-12-20T00:13:49.005Z,23.03
2022-12-20T00:16:19.406Z,23.83
2022-12-20T00:18:46.483Z,22.40
2022-12-20T00:21:14.816Z,22.83
2022-12-20T00:23:41.979Z,21.70
2022-12-20T00:26:12.378Z,22.23
2022-12-20T00:28:40.521Z,22.53
2022-12-20T00:31:09.379Z,22.87
2022-12-20T00:33:37.714Z,22.97
2022-12-20T00:36:05.879Z,22.73
2022-12-20T00:38:33.432Z,22.50
2022-12-20T00:41:11.555Z,22.87
2022-12-20T00:43:39.525Z,22.27
2022-12-20T00:46:07.645Z,22.23
2022-12-20T00:48:35.018Z,21.50
2022-12-20T00:51:13.518Z,21.70
2022-12-20T00:53:40.459Z,22.27
2022-12-20T00:56:08.130Z,20.10
2022-12-20T00:58:40.864Z,21.93
2022-12-20T01:01:17.575Z,23.33
2022-12-20T01:03:44.482Z,22.20
2022-12-20T01:06:11.445Z,22.47
2022-12-20T01:08:38.353Z,22.37
2022-12-20T01:11:06.812Z,22.77
2022-12-20T01:13:36.393Z,21.53
2022-12-20T01:16:15.831Z,22.00
2022-12-20T01:18:43.153Z,21.07
2022-12-20T01:21:12.343Z,19.60
2022-12-20T01:23:39.747Z,20.57
2022-12-20T01:26:11.601Z,21.50
2022-12-20T01:28:40.645Z,21.40
2022-12-20T01:31:09.147Z,20.03
2022-12-20T01:33:36.868Z,20.03
2022-12-20T01:36:06.862Z,20.57
2022-12-20T01:38:34.376Z,19.60
2022-12-20T01:41:01.571Z,20.43
2022-12-20T01:43:51.019Z,20.83
2022-12-20T01:46:19.806Z,21.50
2022-12-20T01:49:13.864Z,20.90
2022-12-20T01:51:50.341Z,21.60
2022-12-20T01:54:19.082Z,20.87
2022-12-20T01:56:51.016Z,21.33
2022-12-20T01:59:18.029Z,21.33
2022-12-20T02:01:45.180Z,21.40
2022-12-20T02:04:13.036Z,21.00
2022-12-20T02:06:39.892Z,21.67
2022-12-20T02:09:08.740Z,22.53
2022-12-20T02:12:02.931Z,20.43
2022-12-20T02:14:51.342Z,23.23
2022-12-20T02:17:20.826Z,22.13
2022-12-20T02:20:11.283Z,23.47
2022-12-20T02:23:17.483Z,22.93
2022-12-20T02:26:13.624Z,23.60
2022-12-20T02:28:52.535Z,22.60
2022-12-20T02:31:25.102Z,23.43
2022-12-20T02:33:54.455Z,22.93
2022-12-20T02:36:21.383Z,23.73
2022-12-20T02:38:48.144Z,22.93
2022-12-20T02:41:22.283Z,23.40
2022-12-20T02:44:15.309Z,23.63
2022-12-20T02:46:42.948Z,24.13
2022-12-20T02:49:14.616Z,23.57
2022-12-20T02:51:45.922Z,23.93
2022-12-20T02:54:13.834Z,24.37
2022-12-20T02:57:08.326Z,23.73
2022-12-20T03:00:01.595Z,24.63
2022-12-20T03:02:29.436Z,23.87
2022-12-20T03:04:58.695Z,24.73
2022-12-20T03:07:25.408Z,24.20
2022-12-20T03:09:52.180Z,23.80
2022-12-20T03:12:18.896Z,24.80
2022-12-20T03:14:45.623Z,26.23
2022-12-20T03:17:12.958Z,24.77
2022-12-20T03:19:39.705Z,24.40
2022-12-20T03:22:06.637Z,24.90
2022-12-20T03:24:33.506Z,26.07
2022-12-20T03:27:00.338Z,24.23
2022-12-20T03:29:27.244Z,24.47
2022-12-20T03:31:54.033Z,25.87
2022-12-20T03:34:20.806Z,25.57
2022-12-20T03:36:47.598Z,24.90
2022-12-20T03:39:14.336Z,25.83
2022-12-20T03:41:41.162Z,26.17
2022-12-20T03:44:08.044Z,26.23
2022-12-20T03:46:34.986Z,25.90
2022-12-20T03:49:01.716Z,25.43
2022-12-20T03:51:28.490Z,25.40
2022-12-20T03:53:55.235Z,25.57
2022-12-20T03:56:21.997Z,26.70
2022-12-20T03:58:48.857Z,25.53
2022-12-20T04:01:21.562Z,26.30
2022-12-20T04:03:48.716Z,26.40
2022-12-20T04:06:16.356Z,26.97
2022-12-20T04:08:43.186Z,26.90
2022-12-20T04:11:16.222Z,24.90
2022-12-20T04:13:47.490Z,25.87
2022-12-20T04:16:16.502Z,26.67
2022-12-20T04:18:43.616Z,26.27
2022-12-20T04:21:11.701Z,26.87
2022-12-20T04:23:39.860Z,27.03
2022-12-20T04:26:07.964Z,28.37
2022-12-20T04:28:35.187Z,27.60
2022-12-20T04:31:02.920Z,27.53
2022-12-20T04:33:30.235Z,28.33
2022-12-20T04:35:57.000Z,27.07
2022-12-20T04:38:24.193Z,27.57
2022-12-20T04:40:52.546Z,28.87
2022-12-20T04:43:19.756Z,27.63
2022-12-20T04:45:52.375Z,28.80
2022-12-20T04:48:55.162Z,28.27
2022-12-20T04:51:06.930Z,26.93
2022-12-20T04:53:49.076Z,28.10
2022-12-20T04:56:18.749Z,27.30
2022-12-20T04:58:46.333Z,27.77
2022-12-20T05:01:13.156Z,26.77
2022-12-20T05:03:40.664Z,27.13
2022-12-20T05:06:08.051Z,27.13
2022-12-20T05:08:35.408Z,28.57
2022-12-20T05:11:02.647Z,28.27
2022-12-20T05:13:29.527Z,28.23
2022-12-20T05:15:57.720Z,27.53
2022-12-20T05:18:25.520Z,26.90
2022-12-20T05:21:15.431Z,25.80
2022-12-20T05:24:01.048Z,26.83
2022-12-20T05:26:31.278Z,25.67
2022-12-20T05:28:58.004Z,25.90
2022-12-20T05:31:24.786Z,27.57
2022-12-20T05:33:51.543Z,27.00
2022-12-20T05:36:18.334Z,25.27
2022-12-20T05:41:17.591Z,26.90
2022-12-20T05:43:44.336Z,26.60
2022-12-20T05:46:11.261Z,25.67
2022-12-20T05:48:38.274Z,24.10
2022-12-20T05:51:05.302Z,27.10
2022-12-20T05:53:32.166Z,26.00
2022-12-20T05:55:59.004Z,26.13
2022-12-20T05:58:25.864Z,24.13
2022-12-20T06:00:52.632Z,25.07
2022-12-20T06:03:19.938Z,27.37
2022-12-20T06:05:46.950Z,26.57
2022-12-20T06:08:13.894Z,25.73
2022-12-20T06:10:44.495Z,28.23
2022-12-20T06:13:11.624Z,26.57
2022-12-20T06:15:38.611Z,26.70
2022-12-20T06:18:06.179Z,25.53
2022-12-20T06:20:37.143Z,25.23
2022-12-20T06:23:04.276Z,26.07
2022-12-20T06:25:31.175Z,27.03
2022-12-20T06:27:57.956Z,26.30
2022-12-20T06:30:30.245Z,27.03
2022-12-20T06:33:00.269Z,31.70
2022-12-20T06:35:26.974Z,26.93
2022-12-20T06:37:53.878Z,27.73
2022-12-20T06:40:20.808Z,26.53
2022-12-20T06:42:47.612Z,25.83
2022-12-20T06:45:14.337Z,26.77
2022-12-20T06:47:41.124Z,25.63
2022-12-20T06:50:08.639Z,27.90
2022-12-20T06:52:35.714Z,25.30
2022-12-20T06:55:04.027Z,25.23
2022-12-20T06:57:30.765Z,25.63
2022-12-20T06:59:57.464Z,25.23
2022-12-20T07:02:27.585Z,25.73
2022-12-20T07:04:55.097Z,27.37
2022-12-20T07:07:22.012Z,27.83
2022-12-20T07:09:49.017Z,26.37
2022-12-20T07:12:18.556Z,25.23
2022-12-20T07:14:45.265Z,26.43
2022-12-20T07:17:12.121Z,26.67
2022-12-20T07:19:39.016Z,23.17
2022-12-20T07:22:06.094Z,27.47
2022-12-20T07:24:33.655Z,26.00
2022-12-20T07:27:01.063Z,25.97
2022-12-20T07:29:28.255Z,28.47
2022-12-20T07:31:55.149Z,29.87
2022-12-20T07:34:22.064Z,27.40
2022-12-20T07:36:48.945Z,24.57
2022-12-20T07:39:15.723Z,24.60
2022-12-20T07:41:42.565Z,25.83
2022-12-20T07:44:09.367Z,25.10
2022-12-20T07:46:36.176Z,24.40
2022-12-20T07:49:03.129Z,24.23
2022-12-20T07:51:36.625Z,23.67
2022-12-20T07:54:04.032Z,22.73
2022-12-20T07:56:40.560Z,23.33
2022-12-20T07:59:09.831Z,22.97
2022-12-20T08:01:36.875Z,23.57
2022-12-20T08:04:07.669Z,23.73
2022-12-20T08:06:37.108Z,21.90
2022-12-20T08:09:05.568Z,22.93
2022-12-20T08:11:35.162Z,22.60
2022-12-20T08:14:02.155Z,23.40
2022-12-20T08:16:28.925Z,22.87
2022-12-20T08:18:55.645Z,23.03
2022-12-20T08:21:22.391Z,22.43
2022-12-20T08:23:49.111Z,22.77
2022-12-20T08:26:15.913Z,22.23
2022-12-20T08:28:42.635Z,22.73
2022-12-20T08:31:10.129Z,23.57
2022-12-20T08:33:38.463Z,25.70
2022-12-20T08:36:11.836Z,23.57
2022-12-20T08:38:39.864Z,22.20
2022-12-20T08:41:10.530Z,21.80
2022-12-20T08:43:38.778Z,22.67
2022-12-20T08:46:07.308Z,22.93
2022-12-20T08:48:34.625Z,25.60
2022-12-20T08:51:03.924Z,29.93
2022-12-20T08:53:31.236Z,29.00
2022-12-20T08:56:27.064Z,23.20
2022-12-20T08:58:54.033Z,22.73
2022-12-20T09:01:26.855Z,22.80
2022-12-20T09:03:53.821Z,22.03
2022-12-20T09:06:22.234Z,22.83
2022-12-20T09:08:50.126Z,21.63
2022-12-20T09:11:18.620Z,22.43
2022-12-20T09:13:47.500Z,22.00
2022-12-20T09:16:16.624Z,22.20
2022-12-20T09:18:43.951Z,21.93
2022-12-20T09:21:11.907Z,22.40
2022-12-20T09:23:38.794Z,21.60
2022-12-20T09:26:08.341Z,24.43
2022-12-20T09:28:35.321Z,21.07
2022-12-20T09:31:04.611Z,22.87
2022-12-20T09:33:33.056Z,22.43
2022-12-20T09:36:00.913Z,22.53
2022-12-20T09:38:28.977Z,20.97
2022-12-20T09:41:01.425Z,22.40
2022-12-20T09:43:28.820Z,22.13
2022-12-20T09:45:59.751Z,21.83
2022-12-20T09:48:31.708Z,22.33
2022-12-20T09:51:14.419Z,21.87
2022-12-20T09:53:50.428Z,22.03
2022-12-20T09:56:27.227Z,22.10
2022-12-20T09:59:03.994Z,21.77
2022-12-20T10:01:38.579Z,21.20
2022-12-20T10:04:15.653Z,20.53
2022-12-20T10:07:01.042Z,21.10
2022-12-20T10:09:45.772Z,21.57
2022-12-20T10:12:21.223Z,21.23
2022-12-20T10:15:12.872Z,24.67
2022-12-20T10:18:19.642Z,50.30
2022-12-20T10:21:10.221Z,32.00
2022-12-20T10:23:46.161Z,21.97
2022-12-20T10:26:14.089Z,21.27
2022-12-20T10:28:41.161Z,19.90
2022-12-20T10:31:14.100Z,19.73
2022-12-20T10:33:41.329Z,20.20
2022-12-20T10:36:28.582Z,21.40
2022-12-20T10:39:07.097Z,19.37
2022-12-20T10:41:43.002Z,18.73
2022-12-20T10:44:39.043Z,20.97
2022-12-20T10:47:30.901Z,19.83
2022-12-20T10:50:10.626Z,20.13
2022-12-20T10:52:37.829Z,19.97
2022-12-20T10:55:42.786Z,18.73
2022-12-20T10:58:16.085Z,20.53
2022-12-20T11:00:44.434Z,19.27
2022-12-20T11:03:19.256Z,25.70
2022-12-20T11:05:59.643Z,27.43
2022-12-20T11:11:22.073Z,26.37
2022-12-20T11:13:50.222Z,24.93
2022-12-20T11:16:28.935Z,25.90
2022-12-20T11:19:20.546Z,25.43
2022-12-20T11:22:12.859Z,23.03
2022-12-20T11:25:20.737Z,20.10
2022-12-20T11:27:47.409Z,18.63
2022-12-20T11:30:24.817Z,18.67
2022-12-20T11:33:33.851Z,20.20
2022-12-20T11:36:19.144Z,18.67
2022-12-20T11:39:06.108Z,19.63
2022-12-20T11:41:59.399Z,18.43
2022-12-20T11:44:35.071Z,18.50
2022-12-20T11:47:20.364Z,19.10
2022-12-20T11:50:03.440Z,18.87
2022-12-20T11:52:39.081Z,17.53
2022-12-20T11:55:33.555Z,19.30
2022-12-20T11:58:19.708Z,18.27
2022-12-20T12:00:58.305Z,18.43
2022-12-20T12:03:38.668Z,18.37
2022-12-20T12:06:24.077Z,16.67
2022-12-20T12:09:00.549Z,19.73
2022-12-20T12:12:05.192Z,20.27
2022-12-20T12:14:37.194Z,28.37
2022-12-20T12:17:14.248Z,20.13
2022-12-20T12:19:45.288Z,18.27
2022-12-20T12:22:20.165Z,18.97
2022-12-20T12:24:51.623Z,18.00
2022-12-20T12:27:28.103Z,17.87
2022-12-20T12:29:58.335Z,21.50
2022-12-20T12:32:34.486Z,19.57
2022-12-20T12:35:09.052Z,19.67
2022-12-20T12:37:50.948Z,19.20
2022-12-20T12:40:52.025Z,21.20
2022-12-20T12:43:44.063Z,22.03
2022-12-20T12:46:18.714Z,20.53
2022-12-20T12:48:57.617Z,19.17
2022-12-20T12:51:37.482Z,18.83
2022-12-20T12:54:23.365Z,18.47
2022-12-20T12:56:52.618Z,18.67
2022-12-20T12:59:48.128Z,18.03
2022-12-20T13:02:15.500Z,26.47
2022-12-20T13:05:10.640Z,24.33
2022-12-20T13:07:37.346Z,22.37
2022-12-20T13:10:10.245Z,24.37
2022-12-20T13:12:36.950Z,21.17
2022-12-20T13:15:22.400Z,20.37
2022-12-20T13:18:09.610Z,18.80
2022-12-20T13:20:36.917Z,17.20
2022-12-20T13:23:10.634Z,16.83
2022-12-20T13:25:48.990Z,19.53
2022-12-20T13:28:24.851Z,19.30
2022-12-20T13:31:01.097Z,20.93
2022-12-20T13:33:51.786Z,18.40
2022-12-20T13:36:33.809Z,20.83
2022-12-20T13:39:03.314Z,20.87
2022-12-20T13:41:46.961Z,26.30
2022-12-20T13:44:16.646Z,19.53
2022-12-20T13:46:49.321Z,18.67
2022-12-20T13:49:27.750Z,18.07
2022-12-20T13:52:40.012Z,29.03
2022-12-20T13:55:17.530Z,16.03
2022-12-20T13:57:46.168Z,17.43
2022-12-20T14:00:25.568Z,18.03
2022-12-20T14:02:54.038Z,17.97
2022-12-20T14:05:32.572Z,21.60
2022-12-20T14:08:02.973Z,21.77
2022-12-20T14:10:32.375Z,20.20
2022-12-20T14:12:59.217Z,18.07
2022-12-20T14:15:28.830Z,15.63
2022-12-20T14:17:56.321Z,16.20
2022-12-20T14:20:29.323Z,15.47
2022-12-20T14:23:05.876Z,15.60
2022-12-20T14:25:43.813Z,15.50
2022-12-20T14:28:24.990Z,15.63
2022-12-20T14:30:54.309Z,16.23
2022-12-20T14:33:33.882Z,15.97
2022-12-20T14:36:31.734Z,16.13
2022-12-20T14:38:58.671Z,15.20
2022-12-20T14:41:37.330Z,15.77
2022-12-20T14:44:07.692Z,18.33
2022-12-20T14:46:36.066Z,16.53
2022-12-20T14:49:19.092Z,15.87
2022-12-20T14:51:47.037Z,14.33
2022-12-20T14:54:39.837Z,13.90
2022-12-20T14:57:19.973Z,15.17
2022-12-20T15:00:15.528Z,17.27
2022-12-20T15:02:52.710Z,15.37
2022-12-20T15:05:36.780Z,15.87
2022-12-20T15:08:29.778Z,16.70
2022-12-20T15:11:22.780Z,17.03
2022-12-20T15:13:53.387Z,16.40
2022-12-20T15:16:21.625Z,16.07
2022-12-20T15:18:49.755Z,18.80
2022-12-20T15:21:37.331Z,23.80
2022-12-20T15:24:09.774Z,27.27
2022-12-20T15:26:37.013Z,20.10
2022-12-20T15:29:04.521Z,17.47
2022-12-20T15:31:34.377Z,22.00
2022-12-20T15:34:06.762Z,19.20
2022-12-20T15:36:33.992Z,16.93
2022-12-20T15:39:12.710Z,19.33
2022-12-20T15:41:43.291Z,34.07
2022-12-20T15:44:27.651Z,26.47
2022-12-20T15:46:54.439Z,22.57
2022-12-20T15:49:26.252Z,20.57
2022-12-20T15:51:54.370Z,21.70
2022-12-20T15:54:24.093Z,15.33
2022-12-20T15:56:51.538Z,16.20
2022-12-20T15:59:57.699Z,25.47
2022-12-20T16:02:17.830Z,20.57
2022-12-20T16:04:44.797Z,17.00
2022-12-20T16:07:12.689Z,17.80
2022-12-20T16:09:39.623Z,15.40
2022-12-20T16:12:16.307Z,14.50
2022-12-20T16:14:43.055Z,15.00
2022-12-20T16:17:14.344Z,14.27
2022-12-20T16:19:42.473Z,14.43
2022-12-20T16:22:15.966Z,14.77
2022-12-20T16:24:43.482Z,14.93
2022-12-20T16:27:10.352Z,15.40
2022-12-20T16:29:37.054Z,16.50
2022-12-20T16:32:08.048Z,18.07
2022-12-20T16:34:34.865Z,17.50
2022-12-20T16:37:01.723Z,17.00
2022-12-20T16:39:28.645Z,18.77
2022-12-20T16:41:55.430Z,18.50
2022-12-20T16:44:23.036Z,23.77
2022-12-20T16:46:49.874Z,23.60
2022-12-20T16:49:20.272Z,20.20
2022-12-20T16:51:49.211Z,19.20
2022-12-20T16:54:21.599Z,18.43
2022-12-20T16:56:57.418Z,17.40
2022-12-20T16:59:25.316Z,16.50
2022-12-20T17:01:55.427Z,16.00
2022-12-20T17:04:23.839Z,15.57
2022-12-20T17:06:50.966Z,15.87
2022-12-20T17:12:05.568Z,15.30
2022-12-20T17:14:32.523Z,16.07
2022-12-20T17:17:00.021Z,19.33
2022-12-20T17:19:26.827Z,20.80
2022-12-20T17:24:38.210Z,27.63
2022-12-20T17:27:05.115Z,21.90
2022-12-20T17:29:31.890Z,23.87
2022-12-20T17:31:58.643Z,20.13
2022-12-20T17:34:27.884Z,20.20
2022-12-20T17:36:56.772Z,19.93
2022-12-20T17:39:25.005Z,20.23
2022-12-20T17:41:53.015Z,18.80
2022-12-20T17:44:23.557Z,18.43
2022-12-20T17:46:51.204Z,17.80
2022-12-20T17:49:17.940Z,17.93
2022-12-20T17:51:45.104Z,19.40
2022-12-20T17:54:21.680Z,21.17
2022-12-20T17:56:49.838Z,24.20
2022-12-20T17:59:17.414Z,21.83
2022-12-20T18:01:45.431Z,21.20
2022-12-20T18:04:15.008Z,19.53
2022-12-20T18:06:43.878Z,18.10
2022-12-20T18:09:20.231Z,18.43
2022-12-20T18:11:47.663Z,18.07
2022-12-20T18:14:14.930Z,17.63
2022-12-20T18:16:42.119Z,16.63
2022-12-20T18:19:18.146Z,17.00
2022-12-20T18:21:45.566Z,17.60
2022-12-20T18:24:14.320Z,18.30
2022-12-20T18:26:41.207Z,16.57
2022-12-20T18:29:09.436Z,16.73
2022-12-20T18:31:36.272Z,16.90
2022-12-20T18:34:03.678Z,19.73
2022-12-20T18:36:37.811Z,20.73
2022-12-20T18:39:07.665Z,18.37
2022-12-20T18:41:35.144Z,16.60
2022-12-20T18:44:04.089Z,16.73
2022-12-20T18:46:30.892Z,16.20
2022-12-20T18:49:00.011Z,36.63
2022-12-20T18:51:29.312Z,31.33
2022-12-20T18:53:57.750Z,33.83
2022-12-20T18:56:26.959Z,56.00
2022-12-20T18:58:53.676Z,48.53
2022-12-20T19:01:26.813Z,33.33
2022-12-20T19:03:54.062Z,64.23
2022-12-20T19:06:21.871Z,56.10
2022-12-20T19:08:49.285Z,38.37
2022-12-20T19:11:19.957Z,25.53
2022-12-20T19:13:47.000Z,19.30
2022-12-20T19:16:17.002Z,19.07
2022-12-20T19:18:44.680Z,18.57
2022-12-20T19:21:32.167Z,24.53
2022-12-20T19:24:01.264Z,21.10
2022-12-20T19:26:29.802Z,17.97
2022-12-20T19:28:57.515Z,17.70
2022-12-20T19:31:27.339Z,17.87
2022-12-20T19:33:56.561Z,24.87
2022-12-20T19:36:26.330Z,20.40
2022-12-20T19:38:56.529Z,23.07
2022-12-20T19:41:25.343Z,21.07
2022-12-20T19:43:52.534Z,21.73
2022-12-20T19:46:28.089Z,18.37
2022-12-20T19:48:55.993Z,17.30
2022-12-20T19:51:22.782Z,17.33
2022-12-20T19:53:51.096Z,16.73
2022-12-20T19:56:23.076Z,16.53
2022-12-20T19:58:50.100Z,16.63
2022-12-20T20:01:18.215Z,16.77
2022-12-20T20:03:45.820Z,15.27
2022-12-20T20:06:13.212Z,18.80
2022-12-20T20:08:40.790Z,20.77
2022-12-20T20:11:10.115Z,18.73
2022-12-20T20:13:37.632Z,17.37
2022-12-20T20:16:05.522Z,17.73
2022-12-20T20:18:37.311Z,17.17
2022-12-20T20:21:09.765Z,17.00
2022-12-20T20:23:38.036Z,18.07
2022-12-20T20:26:11.291Z,17.27
2022-12-20T20:28:44.347Z,16.37
2022-12-20T20:31:14.522Z,18.27
2022-12-20T20:33:41.975Z,16.63
2022-12-20T20:36:12.221Z,17.30
2022-12-20T20:38:39.112Z,18.37
2022-12-20T20:41:06.266Z,18.37
2022-12-20T20:43:37.974Z,16.73
2022-12-20T20:46:06.490Z,18.03
2022-12-20T20:48:33.665Z,17.77
2022-12-20T20:51:00.858Z,18.27
2022-12-20T20:53:33.075Z,17.57
2022-12-20T20:56:01.726Z,17.83
2022-12-20T20:58:28.573Z,18.50
2022-12-20T21:01:00.208Z,17.83
2022-12-20T21:03:28.706Z,18.20
2022-12-20T21:08:43.844Z,17.30
2022-12-20T21:11:10.798Z,17.77
2022-12-20T21:13:37.704Z,16.93
2022-12-20T21:16:20.282Z,16.97
2022-12-20T21:18:55.737Z,17.60
2022-12-20T21:21:24.496Z,16.03
2022-12-20T21:23:52.328Z,16.70
2022-12-20T21:26:21.857Z,17.00
2022-12-20T21:28:48.589Z,16.77
2022-12-20T21:31:17.639Z,15.33
2022-12-20T21:33:47.769Z,15.47
2022-12-20T21:36:16.964Z,16.93
2022-12-20T21:38:51.598Z,16.70
2022-12-20T21:41:20.064Z,18.80
2022-12-20T21:43:47.034Z,17.53
2022-12-20T21:46:13.852Z,16.90
2022-12-20T21:48:42.692Z,16.83
2022-12-20T21:51:12.764Z,16.27
2022-12-20T21:53:48.133Z,15.53
2022-12-20T21:56:15.839Z,15.33
2022-12-20T21:58:43.134Z,16.47
2022-12-20T22:01:14.312Z,16.33
2022-12-20T22:03:41.697Z,16.20
2022-12-20T22:06:08.523Z,16.47
2022-12-20T22:08:37.026Z,15.90
2022-12-20T22:11:09.733Z,16.73
2022-12-20T22:13:41.657Z,15.50
2022-12-20T22:16:21.842Z,15.37
2022-12-20T22:18:50.948Z,17.37
2022-12-20T22:21:19.728Z,16.90
2022-12-20T22:23:46.894Z,17.30
2022-12-20T22:26:16.719Z,17.80
2022-12-20T22:28:49.812Z,17.20
2022-12-20T22:31:17.708Z,17.90
2022-12-20T22:33:45.072Z,18.03
2022-12-20T22:36:13.981Z,16.77
2022-12-20T22:38:40.946Z,16.07
2022-12-20T22:41:16.942Z,18.67
2022-12-20T22:43:45.014Z,18.77
2022-12-20T22:46:12.929Z,18.87
2022-12-20T22:48:40.839Z,18.97
2022-12-20T22:51:16.195Z,17.23
2022-12-20T22:53:43.276Z,18.60
2022-12-20T22:56:10.396Z,19.13
2022-12-20T22:58:38.514Z,19.00
2022-12-20T23:01:08.426Z,18.87
2022-12-20T23:03:36.247Z,18.63
2022-12-20T23:06:05.587Z,18.77
2022-12-20T23:08:35.080Z,19.90
2022-12-20T23:11:20.872Z,20.87
2022-12-20T23:14:06.322Z,20.27
2022-12-20T23:16:33.093Z,19.90
2022-12-20T23:19:01.850Z,20.30
2022-12-20T23:21:50.855Z,21.90
2022-12-20T23:24:17.649Z,20.97
2022-12-20T23:26:44.622Z,21.20
2022-12-20T23:29:14.130Z,22.40
2022-12-20T23:31:41.198Z,22.37
2022-12-20T23:34:08.118Z,21.87
2022-12-20T23:36:34.904Z,22.30
2022-12-20T23:39:01.910Z,22.87
2022-12-20T23:41:29.352Z,23.47
2022-12-20T23:43:56.399Z,23.27
2022-12-20T23:46:23.358Z,24.47
2022-12-20T23:48:51.649Z,24.67
2022-12-20T23:51:19.407Z,24.87
2022-12-20T23:53:46.155Z,24.77
2022-12-20T23:56:20.872Z,24.07
2022-12-20T23:58:52.420Z,24.70
